createdAt,value
2023-05-25T00:02:05.218Z,2.90
2023-05-25T00:04:36.905Z,2.55
2023-05-25T00:07:05.299Z,2.88
2023-05-25T00:09:33.906Z,2.90
2023-05-25T00:12:02.768Z,2.65
2023-05-25T00:14:31.096Z,2.90
2023-05-25T00:17:03.995Z,3.05
2023-05-25T00:19:44.133Z,2.85
2023-05-25T00:22:12.797Z,3.47
2023-05-25T00:24:41.124Z,2.55
2023-05-25T00:27:09.752Z,3.13
2023-05-25T00:29:38.018Z,2.72
2023-05-25T00:32:07.031Z,3.13
2023-05-25T00:34:36.292Z,3.00
2023-05-25T00:37:04.744Z,3.38
2023-05-25T00:39:33.001Z,2.70
2023-05-25T00:42:03.469Z,2.30
2023-05-25T00:44:32.140Z,2.60
2023-05-25T00:47:03.056Z,2.20
2023-05-25T00:49:42.483Z,2.47
2023-05-25T00:52:13.023Z,2.33
2023-05-25T00:54:41.601Z,2.75
2023-05-25T00:57:11.310Z,2.45
2023-05-25T00:59:46.982Z,2.72
2023-05-25T01:02:17.478Z,2.60
2023-05-25T01:04:54.918Z,3.00
2023-05-25T01:07:27.768Z,3.33
2023-05-25T01:10:05.041Z,2.65
2023-05-25T01:12:39.360Z,2.42
2023-05-25T01:15:09.558Z,2.72
2023-05-25T01:17:38.249Z,3.47
2023-05-25T01:20:11.022Z,3.30
2023-05-25T01:23:07.715Z,3.03
2023-05-25T01:25:40.715Z,2.90
2023-05-25T01:28:17.489Z,3.15
2023-05-25T01:30:49.987Z,3.42
2023-05-25T01:33:23.724Z,3.60
2023-05-25T01:35:52.316Z,3.58
2023-05-25T01:38:21.934Z,3.03
2023-05-25T01:40:50.274Z,3.75
2023-05-25T01:43:18.538Z,3.03
2023-05-25T01:45:47.633Z,3.40
2023-05-25T01:48:26.400Z,3.50
2023-05-25T01:51:01.783Z,2.80
2023-05-25T01:53:36.836Z,2.80
2023-05-25T01:56:11.327Z,3.33
2023-05-25T01:58:45.627Z,2.42
2023-05-25T02:01:16.001Z,2.60
2023-05-25T02:03:45.110Z,2.63
2023-05-25T02:06:13.468Z,2.60
2023-05-25T02:08:41.766Z,2.97
2023-05-25T02:11:13.157Z,2.92
2023-05-25T02:13:41.647Z,2.90
2023-05-25T02:16:10.480Z,3.30
2023-05-25T02:18:38.877Z,3.00
2023-05-25T02:21:07.178Z,3.20
2023-05-25T02:23:35.703Z,3.35
2023-05-25T02:26:04.086Z,2.50
2023-05-25T02:28:32.597Z,3.33
2023-05-25T02:31:01.104Z,3.47
2023-05-25T02:33:29.471Z,3.95
2023-05-25T02:35:59.207Z,3.72
2023-05-25T02:38:28.466Z,3.20
2023-05-25T02:40:56.816Z,3.95
2023-05-25T02:43:26.072Z,4.18
2023-05-25T02:45:55.038Z,3.80
2023-05-25T02:48:29.528Z,4.15
2023-05-25T02:50:57.813Z,4.43
2023-05-25T02:53:26.170Z,3.80
2023-05-25T02:55:54.970Z,4.40
2023-05-25T03:01:10.363Z,4.07
2023-05-25T03:03:41.414Z,4.22
2023-05-25T03:06:09.716Z,3.78
2023-05-25T03:08:38.006Z,3.63
2023-05-25T03:11:06.578Z,3.75
2023-05-25T03:13:37.825Z,3.92
2023-05-25T03:16:06.954Z,3.22
2023-05-25T03:18:36.152Z,3.63
2023-05-25T03:21:04.736Z,4.13
2023-05-25T03:23:33.139Z,4.30
2023-05-25T03:26:04.989Z,3.95
2023-05-25T03:28:34.259Z,3.97
2023-05-25T03:31:02.635Z,3.20
2023-05-25T03:33:30.928Z,4.10
2023-05-25T03:35:59.331Z,3.88
2023-05-25T03:38:28.311Z,3.72
2023-05-25T03:41:22.282Z,4.03
2023-05-25T03:43:51.076Z,5.13
2023-05-25T03:46:19.510Z,3.85
2023-05-25T03:48:47.989Z,3.60
2023-05-25T03:51:16.541Z,3.60
2023-05-25T03:53:44.870Z,3.05
2023-05-25T03:56:13.269Z,3.22
2023-05-25T03:58:41.604Z,3.80
2023-05-25T04:01:10.561Z,3.30
2023-05-25T04:03:39.117Z,3.88
2023-05-25T04:06:07.618Z,3.78
2023-05-25T04:08:35.884Z,3.22
2023-05-25T04:11:06.215Z,3.60
2023-05-25T04:13:36.351Z,3.20
2023-05-25T04:16:08.235Z,3.78
2023-05-25T04:18:37.939Z,3.78
2023-05-25T04:21:06.365Z,2.75
2023-05-25T04:23:34.756Z,3.33
2023-05-25T04:26:05.977Z,3.30
2023-05-25T04:28:34.329Z,2.75
2023-05-25T04:31:12.779Z,3.63
2023-05-25T04:34:04.498Z,4.05
2023-05-25T04:36:42.472Z,3.65
2023-05-25T04:39:16.036Z,3.97
2023-05-25T04:41:49.636Z,3.95
2023-05-25T04:44:20.060Z,3.58
2023-05-25T04:46:52.318Z,4.30
2023-05-25T04:49:27.182Z,3.38
2023-05-25T04:51:55.967Z,2.80
2023-05-25T04:54:24.399Z,3.78
2023-05-25T04:56:53.285Z,4.18
2023-05-25T04:59:30.124Z,3.97
2023-05-25T05:01:59.640Z,4.18
2023-05-25T05:04:28.222Z,4.57
2023-05-25T05:06:58.938Z,3.53
2023-05-25T05:09:29.553Z,3.80
2023-05-25T05:12:01.742Z,3.92
2023-05-25T05:14:31.406Z,4.00
2023-05-25T05:17:02.406Z,3.85
2023-05-25T05:22:01.450Z,3.63
2023-05-25T05:24:29.770Z,3.55
2023-05-25T05:26:59.228Z,4.10
2023-05-25T05:29:38.542Z,4.05
2023-05-25T05:32:07.527Z,4.68
2023-05-25T05:34:36.295Z,3.75
2023-05-25T05:37:10.162Z,4.13
2023-05-25T05:39:38.556Z,3.75
2023-05-25T05:42:08.157Z,4.28
2023-05-25T05:44:36.996Z,4.53
2023-05-25T05:47:05.790Z,4.33
2023-05-25T05:49:34.507Z,5.40
2023-05-25T05:52:27.768Z,4.20
2023-05-25T05:54:58.535Z,4.30
2023-05-25T05:57:51.642Z,4.47
2023-05-25T06:00:21.524Z,4.72
2023-05-25T06:02:52.197Z,4.97
2023-05-25T06:05:23.353Z,5.10
2023-05-25T06:08:18.771Z,6.07
2023-05-25T06:10:47.322Z,5.25
2023-05-25T06:13:16.467Z,5.43
2023-05-25T06:15:45.187Z,5.18
2023-05-25T06:18:19.023Z,5.90
2023-05-25T06:20:48.347Z,5.20
2023-05-25T06:23:18.528Z,5.40
2023-05-25T06:25:47.204Z,5.25
2023-05-25T06:28:16.056Z,4.47
2023-05-25T06:30:44.433Z,5.07
2023-05-25T06:33:13.696Z,5.72
2023-05-25T06:35:42.642Z,4.97
2023-05-25T06:38:12.218Z,5.93
2023-05-25T06:40:40.543Z,5.22
2023-05-25T06:43:09.062Z,5.80
2023-05-25T06:45:55.963Z,5.65
2023-05-25T06:48:24.389Z,6.18
2023-05-25T06:50:54.003Z,5.28
2023-05-25T06:53:22.345Z,5.93
2023-05-25T06:55:50.811Z,5.25
2023-05-25T06:58:19.066Z,4.82
2023-05-25T07:00:47.361Z,4.75
2023-05-25T07:03:16.622Z,6.07
2023-05-25T07:05:49.972Z,5.10
2023-05-25T07:08:18.254Z,5.20
2023-05-25T07:10:49.211Z,5.43
2023-05-25T07:13:18.358Z,6.03
2023-05-25T07:15:47.269Z,5.60
2023-05-25T07:18:17.252Z,5.60
2023-05-25T07:20:45.851Z,5.32
2023-05-25T07:23:24.688Z,6.15
2023-05-25T07:25:52.957Z,5.75
2023-05-25T07:28:21.294Z,5.38
2023-05-25T07:30:49.653Z,5.95
2023-05-25T07:33:18.051Z,5.55
2023-05-25T07:36:12.557Z,4.70
2023-05-25T07:38:43.111Z,5.32
2023-05-25T07:41:37.699Z,4.97
2023-05-25T07:44:06.187Z,5.63
2023-05-25T07:46:34.530Z,5.28
2023-05-25T07:49:27.756Z,6.10
2023-05-25T07:51:56.169Z,5.90
2023-05-25T07:54:25.440Z,6.75
2023-05-25T07:56:59.932Z,5.57
2023-05-25T07:59:28.324Z,4.20
2023-05-25T08:01:56.601Z,3.90
2023-05-25T08:04:25.044Z,3.60
2023-05-25T08:06:53.367Z,3.42
2023-05-25T08:09:21.633Z,3.13
